createdAt,value
2023-04-02T00:00:10.532Z,100283.25
2023-04-02T00:03:03.976Z,100293.64
2023-04-02T00:05:50.208Z,100293.89
2023-04-02T00:08:38.968Z,100293.99
2023-04-02T00:11:09.267Z,100295.14
2023-04-02T00:13:41.348Z,100300.63
2023-04-02T00:16:14.537Z,100300.40
2023-04-02T00:18:47.128Z,100303.58
2023-04-02T00:21:22.960Z,100303.41
2023-04-02T00:23:53.734Z,100308.66
2023-04-02T00:26:24.606Z,100310.36
2023-04-02T00:28:52.983Z,100314.41
2023-04-02T00:31:21.458Z,100312.74
2023-04-02T00:33:50.476Z,100314.66
2023-04-02T00:36:22.177Z,100314.69
2023-04-02T00:38:50.952Z,100315.16
2023-04-02T00:41:29.911Z,100315.37
2023-04-02T00:43:59.889Z,100317.11
2023-04-02T00:46:46.862Z,100315.69
2023-04-02T00:49:39.384Z,100318.24
2023-04-02T00:52:16.685Z,100315.91
2023-04-02T00:54:59.220Z,100318.75
2023-04-02T00:57:28.283Z,100322.08
2023-04-02T01:00:20.446Z,100326.72
2023-04-02T01:03:16.819Z,100327.40
2023-04-02T01:06:02.816Z,100329.55
2023-04-02T01:08:39.916Z,100331.99
2023-04-02T01:11:55.800Z,100333.74
2023-04-02T01:15:05.475Z,100329.95
2023-04-02T01:17:49.132Z,100338.53
2023-04-02T01:20:42.274Z,100336.23
2023-04-02T01:23:27.630Z,100341.73
2023-04-02T01:26:34.288Z,100345.56
2023-04-02T01:29:11.499Z,100344.77
2023-04-02T01:31:41.269Z,100350.69
2023-04-02T01:34:12.176Z,100355.38
2023-04-02T01:36:49.552Z,100354.29
2023-04-02T01:39:45.527Z,100362.37
2023-04-02T01:42:24.270Z,100365.87
2023-04-02T01:44:54.395Z,100371.63
2023-04-02T01:47:27.410Z,100373.09
2023-04-02T01:50:02.795Z,100376.79
2023-04-02T01:52:39.180Z,100376.35
2023-04-02T01:55:15.279Z,100380.36
2023-04-02T01:57:47.527Z,100384.81
2023-04-02T02:00:17.818Z,100384.98
2023-04-02T02:02:49.889Z,100390.34
2023-04-02T02:05:23.194Z,100392.61
2023-04-02T02:07:52.959Z,100392.38
2023-04-02T02:10:34.212Z,100397.41
2023-04-02T02:13:03.872Z,100400.27
2023-04-02T02:15:33.744Z,100404.48
2023-04-02T02:18:06.784Z,100403.71
2023-04-02T02:20:36.277Z,100409.76
2023-04-02T02:23:04.935Z,100412.48
2023-04-02T02:25:35.259Z,100416.84
2023-04-02T02:28:06.866Z,100416.33
2023-04-02T02:30:53.135Z,100422.30
2023-04-02T02:33:31.757Z,100425.70
2023-04-02T02:36:10.549Z,100431.52
2023-04-02T02:39:05.888Z,100432.48
2023-04-02T02:41:43.933Z,100436.02
2023-04-02T02:44:20.741Z,100437.86
2023-04-02T02:46:57.039Z,100440.76
2023-04-02T02:49:39.433Z,100444.02
2023-04-02T02:52:21.674Z,100445.17
2023-04-02T02:55:09.041Z,100450.52
2023-04-02T02:58:04.599Z,100451.02
2023-04-02T03:00:37.709Z,100454.34
2023-04-02T03:03:09.833Z,100461.37
2023-04-02T03:05:40.447Z,100462.27
2023-04-02T03:08:21.069Z,100466.04
2023-04-02T03:10:57.260Z,100469.34
2023-04-02T03:13:35.752Z,100470.52
2023-04-02T03:16:22.791Z,100477.24
2023-04-02T03:19:20.573Z,100478.01
2023-04-02T03:22:03.046Z,100479.89
2023-04-02T03:24:45.676Z,100485.08
2023-04-02T03:27:19.663Z,100491.48
2023-04-02T03:30:30.033Z,100492.38
2023-04-02T03:33:04.279Z,100496.98
2023-04-02T03:35:42.464Z,100499.91
2023-04-02T03:38:21.098Z,100503.18
2023-04-02T03:41:05.109Z,100514.36
2023-04-02T03:43:42.752Z,100514.04
2023-04-02T03:46:22.660Z,100517.61
2023-04-02T03:48:56.143Z,100526.80
2023-04-02T03:51:33.481Z,100534.21
2023-04-02T03:54:02.544Z,100537.86
2023-04-02T03:56:39.849Z,100548.48
2023-04-02T03:59:21.749Z,100551.58
2023-04-02T04:02:15.954Z,100556.27
2023-04-02T04:04:46.549Z,100557.61
2023-04-02T04:07:32.653Z,100562.45
2023-04-02T04:10:01.596Z,100566.06
2023-04-02T04:12:37.035Z,100572.44
2023-04-02T04:15:25.072Z,100577.02
2023-04-02T04:18:34.933Z,100584.42
2023-04-02T04:21:37.130Z,100585.22
2023-04-02T04:24:28.535Z,100593.91
2023-04-02T04:27:09.708Z,100598.39
2023-04-02T04:30:06.245Z,100606.44
2023-04-02T04:32:42.823Z,100605.66
2023-04-02T04:35:23.873Z,100608.18
2023-04-02T04:38:00.548Z,100613.75
2023-04-02T04:40:31.601Z,100613.26
2023-04-02T04:43:18.661Z,100618.60
2023-04-02T04:46:03.744Z,100624.20
2023-04-02T04:48:49.712Z,100624.41
2023-04-02T04:51:53.764Z,100624.21
2023-04-02T04:54:28.735Z,100633.20
2023-04-02T04:57:03.216Z,100634.00
2023-04-02T04:59:40.423Z,100644.02
2023-04-02T05:02:18.770Z,100651.42
2023-04-02T05:04:52.281Z,100658.01
2023-04-02T05:07:32.056Z,100660.70
2023-04-02T05:10:17.417Z,100665.67
2023-04-02T05:12:59.221Z,100665.91
2023-04-02T05:15:32.865Z,100671.79
2023-04-02T05:18:23.364Z,100672.67
2023-04-02T05:21:14.561Z,100678.40
2023-04-02T05:24:02.668Z,100680.99
2023-04-02T05:26:37.612Z,100683.05
2023-04-02T05:29:25.339Z,100685.30
2023-04-02T05:32:06.953Z,100691.08
2023-04-02T05:34:40.935Z,100695.67
2023-04-02T05:37:23.305Z,100696.55
2023-04-02T05:39:58.024Z,100701.09
2023-04-02T05:42:37.047Z,100702.25
2023-04-02T05:45:20.679Z,100707.05
2023-04-02T05:47:52.231Z,100711.27
2023-04-02T05:50:30.893Z,100714.96
2023-04-02T05:53:25.746Z,100716.92
2023-04-02T05:56:03.196Z,100721.65
2023-04-02T05:58:39.682Z,100726.91
2023-04-02T06:01:25.339Z,100729.94
2023-04-02T06:04:13.528Z,100735.98
2023-04-02T06:06:50.668Z,100739.30
2023-04-02T06:09:22.547Z,100743.77
2023-04-02T06:12:20.553Z,100745.86
2023-04-02T06:14:48.837Z,100752.09
2023-04-02T06:17:20.040Z,100757.21
2023-04-02T06:19:49.468Z,100768.63
2023-04-02T06:22:32.603Z,100771.77
2023-04-02T06:25:13.716Z,100777.61
2023-04-02T06:27:45.644Z,100779.01
2023-04-02T06:30:19.438Z,100781.18
2023-04-02T06:32:50.582Z,100784.94
2023-04-02T06:35:19.803Z,100789.30
2023-04-02T06:37:59.299Z,100794.87
2023-04-02T06:40:41.324Z,100798.22
2023-04-02T06:43:33.669Z,100804.61
2023-04-02T06:46:23.152Z,100807.91
2023-04-02T06:49:13.349Z,100817.72
2023-04-02T06:51:44.629Z,100820.05
2023-04-02T06:54:18.361Z,100821.27
2023-04-02T06:56:52.878Z,100821.77
2023-04-02T06:59:31.985Z,100827.00
2023-04-02T07:02:04.574Z,100827.36
2023-04-02T07:04:33.351Z,100828.42
2023-04-02T07:07:01.391Z,100833.38
2023-04-02T07:09:33.210Z,100834.68
2023-04-02T07:12:11.316Z,100837.14
2023-04-02T07:14:39.413Z,100842.41
2023-04-02T07:17:07.674Z,100847.02
2023-04-02T07:19:35.679Z,100849.55
2023-04-02T07:22:03.614Z,100851.70
2023-04-02T07:24:36.868Z,100852.10
2023-04-02T07:27:04.753Z,100860.48
2023-04-02T07:29:32.747Z,100861.23
2023-04-02T07:32:00.833Z,100867.45
2023-04-02T07:34:30.170Z,100869.09
2023-04-02T07:36:58.089Z,100871.77
2023-04-02T07:39:26.038Z,100872.52
2023-04-02T07:41:56.826Z,100876.73
2023-04-02T07:44:24.894Z,100877.08
2023-04-02T07:46:52.881Z,100880.70
2023-04-02T07:49:21.464Z,100884.55
2023-04-02T07:51:51.600Z,100889.85
2023-04-02T07:54:19.517Z,100898.25
2023-04-02T07:56:47.509Z,100903.63
2023-04-02T07:59:15.491Z,100909.52
2023-04-02T08:01:43.488Z,100915.42
2023-04-02T08:04:21.434Z,100921.35
2023-04-02T08:06:50.454Z,100921.46
2023-04-02T08:09:18.587Z,100923.88
2023-04-02T08:11:46.710Z,100928.52
2023-04-02T08:14:15.152Z,100936.52
2023-04-02T08:16:56.312Z,100931.39
2023-04-02T08:19:24.680Z,100930.54
2023-04-02T08:21:53.896Z,100934.91
2023-04-02T08:24:22.308Z,100938.37
2023-04-02T08:26:51.644Z,100940.52
2023-04-02T08:29:21.060Z,100943.80
2023-04-02T08:31:49.167Z,100951.52
2023-04-02T08:34:17.407Z,100954.30
2023-04-02T08:36:45.960Z,100952.55
2023-04-02T08:39:14.825Z,100955.45
2023-04-02T08:42:09.018Z,100952.30
2023-04-02T08:44:45.614Z,100958.33
2023-04-02T08:47:15.970Z,100963.23
2023-04-02T08:50:01.744Z,100961.41
2023-04-02T08:52:31.751Z,100965.79
2023-04-02T08:55:01.774Z,100969.23
2023-04-02T08:57:47.487Z,100972.98
2023-04-02T09:00:15.962Z,100976.51
2023-04-02T09:02:52.540Z,100978.70
2023-04-02T09:05:27.518Z,100978.98
2023-04-02T09:07:59.602Z,100983.36
2023-04-02T09:10:41.678Z,100979.56
2023-04-02T09:13:21.663Z,100983.40
2023-04-02T09:15:53.494Z,100986.85
2023-04-02T09:18:21.949Z,100993.90
2023-04-02T09:20:50.288Z,100993.95
2023-04-02T09:23:22.250Z,100994.55
2023-04-02T09:26:03.571Z,101001.98
2023-04-02T09:28:32.826Z,101003.98
2023-04-02T09:31:16.458Z,101005.93
2023-04-02T09:33:47.397Z,101010.01
2023-04-02T09:36:20.129Z,101014.53
2023-04-02T09:39:00.412Z,101024.52
2023-04-02T09:41:30.242Z,101026.73
2023-04-02T09:44:25.402Z,101028.02
2023-04-02T09:47:17.207Z,101034.67
2023-04-02T09:49:45.256Z,101038.05
2023-04-02T09:52:21.664Z,101043.90
2023-04-02T09:55:15.537Z,101045.80
2023-04-02T09:57:43.905Z,101047.21
2023-04-02T10:00:30.717Z,101052.46
2023-04-02T10:03:26.339Z,101052.84
2023-04-02T10:06:08.085Z,101059.79
2023-04-02T10:08:38.232Z,101060.73
2023-04-02T10:11:12.463Z,101061.08
2023-04-02T10:13:50.521Z,101066.06
2023-04-02T10:16:28.104Z,101062.73
2023-04-02T10:18:59.033Z,101068.75
2023-04-02T10:21:31.359Z,101068.61
2023-04-02T10:24:03.176Z,101075.35
2023-04-02T10:26:43.618Z,101077.33
2023-04-02T10:29:53.206Z,101081.52
2023-04-02T10:32:30.582Z,101084.05
2023-04-02T10:35:06.064Z,101087.04
2023-04-02T10:37:44.589Z,101089.35
2023-04-02T10:40:27.602Z,101093.27
2023-04-02T10:43:23.742Z,101093.69
2023-04-02T10:46:18.177Z,101100.82
2023-04-02T10:48:56.721Z,101104.61
2023-04-02T10:51:46.467Z,101103.21
2023-04-02T10:54:21.602Z,101107.54
2023-04-02T10:56:53.370Z,101109.80
2023-04-02T10:59:32.029Z,101111.77
2023-04-02T11:02:04.761Z,101113.21
2023-04-02T11:04:38.767Z,101111.50
2023-04-02T11:07:18.197Z,101119.48
2023-04-02T11:09:52.304Z,101120.63
2023-04-02T11:12:41.724Z,101127.80
2023-04-02T11:15:19.190Z,101131.10
2023-04-02T11:17:48.302Z,101136.19
2023-04-02T11:21:04.729Z,101142.81
2023-04-02T11:23:53.361Z,101138.77
2023-04-02T11:26:38.935Z,101138.85
2023-04-02T11:29:23.403Z,101146.88
2023-04-02T11:32:15.807Z,101148.71
2023-04-02T11:35:03.013Z,101156.54
2023-04-02T11:37:38.415Z,101158.86
2023-04-02T11:40:12.962Z,101162.79
2023-04-02T11:42:49.388Z,101168.89
2023-04-02T11:45:20.927Z,101168.44
2023-04-02T11:48:01.741Z,101173.93
2023-04-02T11:50:35.958Z,101178.79
2023-04-02T11:53:16.378Z,101178.35
2023-04-02T11:55:46.862Z,101187.65
2023-04-02T11:58:24.028Z,101189.35
2023-04-02T12:00:52.161Z,101190.63
2023-04-02T12:03:29.893Z,101201.29
2023-04-02T12:06:19.855Z,101200.91
2023-04-02T12:09:09.918Z,101205.30
2023-04-02T12:11:40.510Z,101210.78
2023-04-02T12:14:47.594Z,101218.29
2023-04-02T12:17:34.834Z,101213.94
2023-04-02T12:20:20.615Z,101215.62
2023-04-02T12:22:52.546Z,101214.10
2023-04-02T12:25:29.447Z,101219.69
2023-04-02T12:28:09.512Z,101215.69
2023-04-02T12:30:38.900Z,101217.34
2023-04-02T12:33:20.040Z,101216.86
2023-04-02T12:35:51.300Z,101216.31
2023-04-02T12:38:43.764Z,101219.00
2023-04-02T12:41:24.487Z,101221.51
2023-04-02T12:44:04.538Z,101219.50
2023-04-02T12:46:35.724Z,101220.23
2023-04-02T12:49:25.644Z,101221.45
2023-04-02T12:51:55.000Z,101223.32
2023-04-02T12:54:23.878Z,101225.98
2023-04-02T12:56:52.119Z,101231.30
2023-04-02T12:59:36.167Z,101238.60
2023-04-02T13:02:19.504Z,101243.70
2023-04-02T13:04:53.558Z,101243.13
2023-04-02T13:07:27.164Z,101246.77
2023-04-02T13:10:00.936Z,101246.06
2023-04-02T13:12:35.512Z,101249.48
2023-04-02T13:15:08.246Z,101250.39
2023-04-02T13:17:37.430Z,101255.37
2023-04-02T13:20:27.156Z,101256.91
2023-04-02T13:22:55.964Z,101258.56
2023-04-02T13:25:32.166Z,101261.17
2023-04-02T13:28:00.369Z,101260.88
2023-04-02T13:30:29.682Z,101264.23
2023-04-02T13:32:57.629Z,101265.68
2023-04-02T13:35:27.307Z,101267.89
2023-04-02T13:37:55.234Z,101276.17
2023-04-02T13:40:23.135Z,101276.27
2023-04-02T13:42:51.478Z,101274.29
2023-04-02T13:45:25.573Z,101278.13
2023-04-02T13:47:55.098Z,101280.42
2023-04-02T13:50:24.223Z,101284.25
2023-04-02T13:52:53.536Z,101284.19
2023-04-02T13:55:24.920Z,101290.16
2023-04-02T13:57:53.021Z,101295.73
2023-04-02T14:00:21.420Z,101298.69
2023-04-02T14:02:55.516Z,101301.84
2023-04-02T14:05:47.215Z,101300.92
2023-04-02T14:08:33.309Z,101299.28
2023-04-02T14:11:16.274Z,101305.83
2023-04-02T14:13:53.327Z,101301.27
2023-04-02T14:17:06.074Z,101306.47
2023-04-02T14:20:05.435Z,101305.48
2023-04-02T14:22:51.841Z,101313.21
2023-04-02T14:25:54.315Z,101311.08
2023-04-02T14:28:42.830Z,101317.57
2023-04-02T14:31:16.510Z,101320.06
2023-04-02T14:33:51.424Z,101325.27
2023-04-02T14:36:24.265Z,101322.12
2023-04-02T14:39:04.414Z,101327.17
2023-04-02T14:41:58.203Z,101327.67
2023-04-02T14:44:31.660Z,101330.39
2023-04-02T14:47:13.707Z,101332.23
2023-04-02T14:49:46.204Z,101332.96
2023-04-02T14:52:19.336Z,101332.33
2023-04-02T14:54:55.690Z,101334.55
2023-04-02T14:57:35.536Z,101334.43
2023-04-02T15:00:22.797Z,101333.70
2023-04-02T15:02:57.072Z,101339.79
2023-04-02T15:05:43.562Z,101339.85
2023-04-02T15:08:48.333Z,101340.53
2023-04-02T15:11:26.650Z,101344.59
2023-04-02T15:14:06.294Z,101344.11
2023-04-02T15:16:36.571Z,101352.20
2023-04-02T15:19:12.233Z,101351.99
2023-04-02T15:22:31.631Z,101354.04
2023-04-02T15:25:23.336Z,101359.35
2023-04-02T15:28:26.888Z,101363.70
2023-04-02T15:30:58.997Z,101365.14
2023-04-02T15:33:36.089Z,101373.52
2023-04-02T15:36:36.454Z,101376.67
2023-04-02T15:39:17.919Z,101380.05
2023-04-02T15:42:05.075Z,101383.51
2023-04-02T15:44:34.690Z,101384.66
2023-04-02T15:47:24.781Z,101387.73
2023-04-02T15:50:21.978Z,101392.56
2023-04-02T15:53:09.621Z,101397.00
2023-04-02T15:55:48.833Z,101404.55
2023-04-02T15:59:03.698Z,101409.81
2023-04-02T16:01:38.474Z,101412.77
2023-04-02T16:04:44.364Z,101418.59
2023-04-02T16:07:30.808Z,101424.99
2023-04-02T16:10:41.875Z,101427.81
2023-04-02T16:13:29.416Z,101434.02
2023-04-02T16:16:05.289Z,101435.26
2023-04-02T16:18:44.971Z,101437.56
2023-04-02T16:21:20.679Z,101440.36
2023-04-02T16:23:49.119Z,101427.09
2023-04-02T16:26:39.711Z,101431.08
2023-04-02T16:29:47.527Z,101435.45
2023-04-02T16:32:37.659Z,101440.16
2023-04-02T16:35:44.365Z,101446.98
2023-04-02T16:38:30.632Z,101449.54
2023-04-02T16:41:32.850Z,101450.77
2023-04-02T16:44:25.920Z,101452.64
2023-04-02T16:47:20.480Z,101463.09
2023-04-02T16:50:22.773Z,101465.89
2023-04-02T16:52:56.282Z,101461.70
2023-04-02T16:55:52.276Z,101467.88
2023-04-02T16:58:26.569Z,101473.73
2023-04-02T17:01:06.791Z,101477.81
2023-04-02T17:03:52.343Z,101483.84
2023-04-02T17:06:43.967Z,101486.71
2023-04-02T17:09:17.124Z,101502.55
2023-04-02T17:12:11.717Z,101506.81
2023-04-02T17:14:52.329Z,101507.52
2023-04-02T17:17:21.485Z,101511.26
2023-04-02T17:19:56.584Z,101519.40
2023-04-02T17:22:24.472Z,101523.63
2023-04-02T17:24:57.851Z,101530.33
2023-04-02T17:27:31.323Z,101536.94
2023-04-02T17:30:06.362Z,101542.29
2023-04-02T17:32:34.588Z,101548.48
2023-04-02T17:35:32.288Z,101562.84
2023-04-02T17:38:02.636Z,101565.70
2023-04-02T17:40:42.596Z,101568.09
2023-04-02T17:43:33.236Z,101573.15
2023-04-02T17:46:13.376Z,101581.02
2023-04-02T17:48:50.543Z,101585.04
2023-04-02T17:51:39.818Z,101590.79
2023-04-02T17:54:37.267Z,101595.77
2023-04-02T17:57:26.397Z,101603.39
2023-04-02T18:00:10.460Z,101606.96
2023-04-02T18:02:42.108Z,101614.89
2023-04-02T18:05:29.543Z,101620.71
2023-04-02T18:08:22.671Z,101625.54
2023-04-02T18:11:12.794Z,101632.58
2023-04-02T18:14:00.902Z,101641.85
2023-04-02T18:17:01.102Z,101645.55
2023-04-02T18:19:48.429Z,101657.31
2023-04-02T18:22:29.388Z,101661.66
2023-04-02T18:25:24.756Z,101660.44
2023-04-02T18:27:53.037Z,101668.89
2023-04-02T18:30:39.415Z,101673.65
2023-04-02T18:33:20.355Z,101680.44
2023-04-02T18:36:22.482Z,101683.25
2023-04-02T18:39:08.612Z,101687.37
2023-04-02T18:41:46.230Z,101693.38
2023-04-02T18:44:29.550Z,101691.61
2023-04-02T18:47:26.986Z,101697.02
2023-04-02T18:50:16.745Z,101701.04
2023-04-02T18:52:46.085Z,101703.20
2023-04-02T18:55:21.865Z,101709.15
2023-04-02T18:57:55.553Z,101708.13
2023-04-02T19:00:38.279Z,101709.96
2023-04-02T19:03:20.931Z,101709.56
2023-04-02T19:05:55.715Z,101716.05
2023-04-02T19:08:48.521Z,101714.70
2023-04-02T19:11:22.217Z,101719.51
2023-04-02T19:13:51.463Z,101722.05
2023-04-02T19:16:34.854Z,101727.54
2023-04-02T19:19:19.298Z,101735.02
2023-04-02T19:22:11.128Z,101734.39
2023-04-02T19:25:07.971Z,101735.04
2023-04-02T19:28:07.943Z,101743.95
2023-04-02T19:31:13.984Z,101743.52
2023-04-02T19:33:52.456Z,101746.61
2023-04-02T19:36:54.947Z,101745.75
2023-04-02T19:39:47.921Z,101751.27
2023-04-02T19:42:36.342Z,101745.14
2023-04-02T19:45:06.207Z,101747.41
2023-04-02T19:47:34.193Z,101748.27
2023-04-02T19:50:02.320Z,101755.06
2023-04-02T19:52:30.924Z,101757.39
2023-04-02T19:54:58.900Z,101758.69
2023-04-02T19:57:28.444Z,101762.06
2023-04-02T19:59:56.542Z,101762.61
2023-04-02T20:02:24.537Z,101775.66
2023-04-02T20:04:52.625Z,101775.86
2023-04-02T20:07:20.461Z,101778.27
2023-04-02T20:09:48.413Z,101779.86
2023-04-02T20:12:16.250Z,101778.71
2023-04-02T20:14:44.129Z,101783.04
2023-04-02T20:17:14.533Z,101784.61
2023-04-02T20:19:43.995Z,101788.91
2023-04-02T20:22:11.784Z,101788.19
2023-04-02T20:24:41.133Z,101794.80
2023-04-02T20:27:09.163Z,101797.93
2023-04-02T20:29:37.119Z,101801.71
2023-04-02T20:32:05.147Z,101808.76
2023-04-02T20:34:33.153Z,101809.90
2023-04-02T20:37:01.424Z,101813.77
2023-04-02T20:39:29.566Z,101815.86
2023-04-02T20:42:01.371Z,101816.73
2023-04-02T20:44:29.387Z,101821.01
2023-04-02T20:46:57.685Z,101827.60
2023-04-02T20:49:25.671Z,101832.52
2023-04-02T20:51:53.593Z,101834.50
2023-04-02T20:54:21.642Z,101842.28
2023-04-02T20:56:50.438Z,101846.36
2023-04-02T20:59:18.650Z,101849.45
2023-04-02T21:01:46.577Z,101851.73
2023-04-02T21:04:14.772Z,101854.92
2023-04-02T21:06:42.627Z,101854.38
2023-04-02T21:09:18.245Z,101855.58
2023-04-02T21:11:46.476Z,101863.27
2023-04-02T21:14:14.458Z,101865.83
2023-04-02T21:16:42.454Z,101869.77
2023-04-02T21:19:11.035Z,101865.43
2023-04-02T21:21:40.581Z,101874.40
2023-04-02T21:24:09.449Z,101875.52
2023-04-02T21:26:40.590Z,101883.88
2023-04-02T21:29:09.145Z,101884.45
2023-04-02T21:31:39.051Z,101889.45
2023-04-02T21:34:09.320Z,101891.55
2023-04-02T21:36:41.249Z,101894.67
2023-04-02T21:39:12.970Z,101899.16
2023-04-02T21:41:43.313Z,101895.37
2023-04-02T21:44:15.451Z,101898.14
2023-04-02T21:46:44.255Z,101897.10
2023-04-02T21:49:15.841Z,101903.13
2023-04-02T21:51:46.423Z,101906.21
2023-04-02T21:54:14.761Z,101909.02
2023-04-02T21:56:45.777Z,101912.45
2023-04-02T21:59:16.189Z,101912.76
2023-04-02T22:01:49.604Z,101918.73
2023-04-02T22:04:23.970Z,101911.77
2023-04-02T22:06:52.710Z,101915.02
2023-04-02T22:09:26.645Z,101917.79
2023-04-02T22:12:01.839Z,101920.30
2023-04-02T22:14:29.995Z,101925.78
2023-04-02T22:17:00.806Z,101924.16
2023-04-02T22:19:28.956Z,101927.64
2023-04-02T22:21:57.056Z,101928.59
2023-04-02T22:24:25.424Z,101928.61
2023-04-02T22:26:53.548Z,101931.43
2023-04-02T22:29:21.599Z,101932.16
2023-04-02T22:31:49.513Z,101937.03
2023-04-02T22:34:17.598Z,101936.41
2023-04-02T22:36:45.609Z,101936.98
2023-04-02T22:39:13.508Z,101940.36
2023-04-02T22:41:41.422Z,101940.02
2023-04-02T22:44:14.308Z,101946.86
2023-04-02T22:46:42.517Z,101943.94
2023-04-02T22:49:11.724Z,101946.85
2023-04-02T22:51:39.799Z,101950.55
2023-04-02T22:54:07.832Z,101956.30
2023-04-02T22:56:37.687Z,101958.31
2023-04-02T22:59:06.018Z,101958.16
2023-04-02T23:01:36.082Z,101960.77
2023-04-02T23:04:05.426Z,101963.92
2023-04-02T23:06:33.911Z,101965.54
2023-04-02T23:09:01.797Z,101965.17
2023-04-02T23:11:29.812Z,101964.91
2023-04-02T23:13:58.794Z,101966.92
2023-04-02T23:16:29.035Z,101968.52
2023-04-02T23:18:57.680Z,101969.95
2023-04-02T23:21:26.367Z,101972.05
2023-04-02T23:23:55.119Z,101967.36
2023-04-02T23:26:27.541Z,101968.29
2023-04-02T23:28:55.372Z,101966.88
2023-04-02T23:31:24.228Z,101965.86
2023-04-02T23:33:53.338Z,101966.84
2023-04-02T23:36:27.279Z,101964.70
2023-04-02T23:38:58.004Z,101966.36
2023-04-02T23:41:27.179Z,101967.46
2023-04-02T23:43:56.342Z,101966.58
2023-04-02T23:46:25.013Z,101967.04
2023-04-02T23:48:53.710Z,101964.71
2023-04-02T23:51:22.462Z,101966.99
2023-04-02T23:53:51.853Z,101972.55
2023-04-02T23:56:20.975Z,101971.58
2023-04-02T23:58:50.349Z,101971.53
